Sedgwick Reserve, California Weather observations

Data are for 10 minute period ending at time listed.
 Day   Time   Solar   Ave.   Ave.  Ave.  Vector  Max.   Baro.   Total    
  of    of     Rad.   Air    Rel.  Wind   Wind   Wind  Press.  Precip.   
Year   Day            Temp.  Hum.  Speed  Dir.   Gust                    
2018   (PST)  Kw/m2    F      %     mph   deg.    mph    mb.     in.     
-------------------------------------------------------------------------
 203    7:20   0.41   69.2    62    2.9   141     3.9   977.5    0.00 
 203    7:30   0.45   69.5    62    2.8   137     4.5   977.4    0.00 
 203    7:40   0.48   71.5    58    2.7   123     4.5   977.4    0.00 
 203    7:50   0.51   73.6    55    2.8   120     4.5   977.4    0.00 
 203    8:00   0.55   74.5    54    2.4   116     4.6   977.4    0.00 
 203    8:10   0.58   74.8    52    2.2   153     3.9   977.4    0.00 
 203    8:20   0.60   76.1    51    1.8   147     4.2   977.4    0.00 
 203    8:30   0.64   77.4    48    2.2   150     5.0   977.4    0.00 
 203    8:40   0.66   77.9    46    2.1   165     5.6   977.3    0.00 
 203    8:50   0.69   80.6    40    2.0   134     5.0   977.3    0.00 
 203    9:00   0.72   81.7    40    1.7   155     5.3   977.2    0.00 
 203    9:10   0.74   81.7    41    3.6   126     6.3   977.2    0.00 
 203    9:20   0.76   82.9    40    3.1   128     6.4   977.3    0.00 
 203    9:30   0.79   83.8    39    3.0   120     5.9   977.3    0.00 
 203    9:40   0.81   84.4    38    4.1   159     7.7   977.3    0.00 
 203    9:50   0.82   82.4    41    3.3   234     6.7   977.2    0.00 
 203   10:00   0.84   83.2    40    3.3   239     8.2   977.1    0.00 
 203   10:10   0.86   84.5    38    2.9   191     8.0   977.1    0.00 
 203   10:20   0.88   85.0    37    3.2   262     6.5   977.2    0.00 
 203   10:30   0.89   85.4    35    4.5   244     8.8   977.1    0.00 
 203   10:40   0.90   85.9    33    6.6   204     9.8   977.1    0.00 
 203   10:50   0.91   86.2    31    7.2   220    12.7   977.2    0.00 
 203   11:00   0.92   87.2    30    6.1   226    11.0   977.0    0.00 
 203   11:10   0.93   88.0    30    7.4   249    13.0   977.0    0.00 
 203   11:20   0.93   87.7    32    5.4   263    12.3   977.0    0.00 
 203   11:30   0.93   88.9    32    6.8   265    11.8   977.0    0.00 
 203   11:40   0.90   88.5    33    6.2   274    11.9   977.0    0.00 
 203   11:50   0.93   89.1    33    6.1   270    14.0   977.0    0.00 
 203   12:00   0.93   89.3    32    6.1   268    14.8   976.9    0.00 
 203   12:10   0.93   89.9    32    8.1   261    15.4   976.7    0.00 
 203   12:20   0.93   89.5    32    8.5   258    13.7   976.7    0.00 
 203   12:30   0.92   90.1    31    7.4   273    14.4   976.7    0.00 
 203   12:40   0.92   90.1    31    8.5   279    17.0   976.6    0.00 
 203   12:50   0.91   90.4    31    9.5   275    17.3   976.6    0.00 
 203   13:00   0.90   89.5    32   10.6   291    16.8   976.6    0.00 
 203   13:10   0.89   89.4    33   10.5   288    16.4   976.6    0.00 
 203   13:20   0.87   89.0    33    8.7   299    17.2   976.6    0.00 
 203   13:30   0.86   89.5    33    9.6   279    17.0   976.6    0.00 
 203   13:40   0.84   88.5    34   10.8   288    18.1   976.6    0.00 
 203   13:50   0.83   87.7    35   11.2   293    18.0   976.5    0.00 
 203   14:00   0.81   88.5    35    9.5   297    17.0   976.5    0.00 
 203   14:10   0.79   87.3    36   10.9   286    17.5   976.4    0.00 
 203   14:20   0.77   87.2    36   11.1   295    18.0   976.4    0.00 
 203   14:30   0.74   87.1    35   12.1   295    18.1   976.4    0.00 
 203   14:40   0.72   85.6    36   11.1   285    17.2   976.3    0.00 
 203   14:50   0.69   86.1    35   11.3   290    17.7   976.4    0.00 
 203   15:00   0.67   86.4    35   10.2   291    16.4   976.3    0.00 
 203   15:10   0.64   86.3    34   10.9   310    19.7   976.3    0.00 
 203   15:20   0.61   84.8    35   11.9   286    20.6   976.3    0.00 
 203   15:30   0.58   84.7    34   10.3   286    16.9   976.3    0.00 
 203   15:40   0.55   85.8    33    9.9   288    16.7   976.3    0.00 
 203   15:50   0.52   83.2    34   13.2   276    20.7   976.2    0.00 
 203   16:00   0.49   83.8    33   12.1   281    17.4   976.2    0.00 
 203   16:10   0.46   82.7    34   13.4   283    21.1   976.1    0.00 
 203   16:20   0.43   83.3    33   11.6   284    22.4   976.1    0.00 
 203   16:30   0.39   81.0    36   14.0   286    20.5   976.0    0.00 
 203   16:40   0.36   80.6    38   10.8   290    18.4   976.1    0.00 
 203   16:50   0.33   80.9    39    8.8   294    15.7   976.1    0.00 
 203   17:00   0.30   79.8    41   10.2   287    18.0   976.2    0.00 
 203   17:10   0.27   79.7    42    9.8   291    17.0   976.2    0.00 
 203   17:20   0.23   78.7    44    9.9   288    16.6   976.2    0.00 
 203   17:30   0.20   79.0    44    7.5   285    12.3   976.2    0.00 
 203   17:40   0.17   77.5    47    9.2   280    15.3   976.2    0.00 
 203   17:50   0.15   77.8    48    7.3   280    12.6   976.3    0.00 
 203   18:00   0.12   78.0    48    3.7   269     8.5   976.4    0.00 
 203   18:10   0.09   77.6    48    3.6   276     6.7   976.5    0.00 
 203   18:20   0.06   77.3    49    3.1   275     7.7   976.6    0.00 
 203   18:30   0.04   77.1    49    3.5   284     6.9   976.6    0.00 
 203   18:40   0.02   75.6    52    5.1   270     8.8   976.6    0.00 
 203   18:50   0.02   74.9    54    4.6   267     6.8   976.7    0.00 
 203   19:00   0.01   73.6    56    4.9   268     7.7   976.8    0.00 
 203   19:10   0.01   72.6    58    5.2   271     7.9   976.9    0.00 
 203   19:20   0.00   71.8    60    5.4   282     7.1   977.0    0.00 
 203   19:30   0.00   71.2    60    2.8   269     6.2   977.1    0.00 
 203   19:40   0.00   70.8    60    2.4   159     6.8   977.1    0.00 
 203   19:50   0.00   69.2    63    4.3   134     6.3   977.2    0.00 
 203   20:00   0.00   67.8    66    3.9   128     6.2   977.1    0.00 
 203   20:10   0.00   66.8    68    4.1   129     6.9   977.1    0.00 
 203   20:20   0.00   66.3    69    3.2   140     5.2   977.2    0.00 
 203   20:30   0.00   65.9    70    2.5   136     4.1   977.3    0.00 
 203   20:40   0.00   65.5    70    2.8   148     4.4   977.5    0.00 
 203   20:50   0.00   65.0    72    2.0   125     3.7   977.7    0.00 
 203   21:00   0.00   64.4    73    2.4    94     4.6   977.7    0.00 
 203   21:10   0.00   64.1    74    1.9    88     3.8   977.6    0.00 
 203   21:20   0.00   64.0    74    1.7    94     3.1   977.6    0.00 
 203   21:30   0.00   63.6    74    2.3    97     3.1   977.5    0.00 
 203   21:40   0.00   63.3    75    1.6   100     3.4   977.5    0.00 
 203   21:50   0.00   63.2    75    1.0   100     2.3   977.5    0.00 
 203   22:00   0.00   62.7    75    0.5    72     1.5   977.5    0.00 
 203   22:10   0.00   62.1    75    0.3   258     2.2   977.6    0.00 
 203   22:20   0.00   61.8    75    0.5    19     2.6   977.7    0.00 
 203   22:30   0.00   61.4    76    1.7    16     3.1   977.7    0.00 
 203   22:40   0.00   61.0    76    0.9     1     2.2   977.6    0.00 
 203   22:50   0.00   60.1    77    2.1    25     3.7   977.5    0.00 
 203   23:00   0.00   60.1    78    0.9    22     2.1   977.5    0.00 
 203   23:10   0.00   60.0    77    0.8    31     1.8   977.4    0.00 
 203   23:20   0.00   59.8    77    1.6   271     3.1   977.3    0.00 
 203   23:30   0.00   59.5    78    0.9   227     2.8   977.3    0.00 
 203   23:40   0.00   59.1    78    1.2   177     3.7   977.3    0.00 
 203   23:50   0.00   58.9    79    1.3    87     3.2   977.3    0.00 
 204    0:00   0.00   58.7    80    1.7    49     3.2   977.2    0.00 
 204    0:10   0.00   57.9    80    2.9    22     4.0   977.1    0.00 
 204    0:20   0.00   57.9    82    1.1    16     2.6   976.9    0.00 
 204    0:30   0.00   57.8    81    1.3    28     3.2   976.8    0.00 
 204    0:40   0.00   57.6    81    0.5   339     2.3   976.7    0.00 
 204    0:50   0.00   57.6    82    1.6   297     3.1   976.6    0.00 
 204    1:00   0.00   56.8    83    2.4     5     4.2   976.5    0.00 
 204    1:10   0.00   56.8    83    1.0     9     2.2   976.5    0.00 
 204    1:20   0.00   56.4    83    2.2    13     2.8   976.4    0.00 
 204    1:30   0.00   56.4    83    1.1   347     2.4   976.3    0.00 
 204    1:40   0.00   56.5    84    0.7   315     1.8   976.2    0.00 
 204    1:50   0.00   56.3    84    0.6    29     3.0   976.2    0.00 
 204    2:00   0.00   55.9    84    1.3     2     2.8   976.1    0.00 
 204    2:10   0.00   55.8    85    1.8   279     3.4   975.9    0.00 
 204    2:20   0.00   56.1    85    1.3    30     2.3   975.9    0.00 
 204    2:30   0.00   55.9    84    0.5   292     1.6   975.9    0.00 
 204    2:40   0.00   55.8    85    0.3     4     1.5   975.8    0.00 
 204    2:50   0.00   55.6    85    0.5   221     1.5   975.7    0.00 
 204    3:00   0.00   55.8    86    0.5   300     2.2   975.7    0.00 
 204    3:10   0.00   55.6    86    0.9    22     2.9   975.6    0.00 
 204    3:20   0.00   55.4    86    0.5    27     3.2   975.7    0.00 
 204    3:30   0.00   55.1    87    1.5    22     3.5   975.7    0.00 
 204    3:40   0.00   54.8    87    1.2     0     2.9   975.6    0.00 
 204    3:50   0.00   54.6    87    1.4   242     2.8   975.5    0.00 
 204    4:00   0.00   54.8    88    0.4   286     1.0   975.5    0.00 
 204    4:10   0.00   54.6    88    1.5    31     2.6   975.5    0.00 
 204    4:20   0.00   54.6    88    1.5    12     2.8   975.5    0.00 
 204    4:30   0.00   54.2    88    1.0   267     3.8   975.6    0.00 
 204    4:40   0.00   54.1    88    1.3     3     3.9   975.7    0.00 
 204    4:50   0.00   53.8    89    2.6    16     5.1   975.8    0.00 
 204    5:00   0.00   53.5    89    1.5   345     2.9   975.8    0.00 
 204    5:10   0.00   53.8    89    0.3   278     1.2   975.8    0.00 
 204    5:20   0.01   53.7    89    0.9    18     2.2   975.8    0.00 
 204    5:30   0.01   53.5    89    1.4   284     2.1   975.8    0.00 
 204    5:40   0.01   53.8    89    0.8   303     2.0   975.7    0.00 
 204    5:50   0.03   54.2    89    0.5    44     1.5   975.7    0.00 
 204    6:00   0.11   55.4    87    1.0    27     2.2   975.7    0.00 
 204    6:10   0.18   55.7    85    0.2    26     1.8   975.7    0.00 
 204    6:20   0.21   57.0    84    1.1    22     3.1   975.7    0.00 
 204    6:30   0.25   59.1    81    1.1   336     2.2   975.7    0.00 
 204    6:40   0.28   62.8    74    0.7    55     1.7   975.7    0.00 
 204    6:50   0.32   65.2    71    0.7   124     2.4   975.7    0.00 
 204    7:00   0.35   67.2    67    1.0   102     3.2   975.7    0.00 
 204    7:10   0.39   68.6    64    1.3   123     2.6   975.7    0.00 

Return to Sedgwick Reserve graphs page.


Western Regional Climate Center,wrcc@dri.edu